Time;durP1;ratioP1;P1;durP2;ratioP2;P2;SDS_P1;SDS_P2;PMS_P1;PMS_P2;Temp;Humidity;BMP_temperature;BMP_pressure;BME280_temperature;BME280_humidity;BME280_pressure;Samples;Min_cycle;Max_cycle;Signal;HPM_P1;HPM_P2
2021/01/28 00:01:48;;;;;;;20.63;12.73;;;;;;;2.92;83.20;97608.41;5030726;28;20234;-81
2021/01/28 00:04:14;;;;;;;20.20;12.60;;;;;;;2.88;83.40;97612.75;5034723;28;20306;-80
2021/01/28 00:06:41;;;;;;;18.90;11.80;;;;;;;2.85;83.72;97615.41;5034663;28;20241;-80
2021/01/28 00:09:08;;;;;;;19.03;12.63;;;;;;;2.78;84.09;97606.06;5038320;28;20209;-81
2021/01/28 00:11:34;;;;;;;18.87;13.23;;;;;;;2.75;83.48;97603.53;5037290;28;21027;-81
2021/01/28 00:14:00;;;;;;;18.93;11.70;;;;;;;2.76;83.93;97604.38;5045300;28;20253;-81
2021/01/28 00:16:27;;;;;;;17.90;11.57;;;;;;;2.74;84.01;97601.84;5043883;28;20306;-86
2021/01/28 00:18:54;;;;;;;17.37;12.20;;;;;;;2.73;83.90;97609.59;5046150;28;20263;-87
2021/01/28 00:21:20;;;;;;;18.77;12.63;;;;;;;2.74;84.34;97609.56;5045059;28;20318;-87
2021/01/28 00:23:47;;;;;;;19.90;12.70;;;;;;;2.73;84.16;97610.44;5046986;28;20288;-87
2021/01/28 00:26:13;;;;;;;19.30;13.30;;;;;;;2.73;83.95;97597.56;5041053;28;20317;-87
2021/01/28 00:28:40;;;;;;;19.47;13.37;;;;;;;2.75;84.17;97600.97;5044910;28;20304;-87
2021/01/28 00:31:06;;;;;;;18.07;12.60;;;;;;;2.71;84.48;97591.59;5044912;28;20242;-87
2021/01/28 00:33:32;;;;;;;19.47;12.83;;;;;;;2.72;84.30;97598.47;5044756;28;20274;-87
2021/01/28 00:35:58;;;;;;;20.07;12.37;;;;;;;2.68;84.55;97594.22;5045688;28;20242;-81
2021/01/28 00:38:26;;;;;;;20.47;13.00;;;;;;;2.67;84.70;97592.53;5046228;28;20224;-80
2021/01/28 00:40:54;;;;;;;21.57;13.47;;;;;;;2.63;84.91;97596.03;5041939;28;20236;-81
2021/01/28 00:43:20;;;;;;;19.00;12.90;;;;;;;2.62;84.95;97592.59;5047298;28;20243;-81
2021/01/28 00:45:47;;;;;;;19.30;11.73;;;;;;;2.58;84.84;97583.22;5045414;28;20344;-81
2021/01/28 00:48:13;;;;;;;19.87;12.47;;;;;;;2.57;85.21;97590.94;5047636;28;20301;-81
2021/01/28 00:50:40;;;;;;;19.17;12.67;;;;;;;2.56;85.52;97586.69;5045532;28;20856;-81
2021/01/28 00:53:07;;;;;;;26.40;15.07;;;;;;;2.55;85.32;97585.81;5041857;28;20218;-81
2021/01/28 00:55:33;;;;;;;19.17;12.30;;;;;;;2.54;85.47;97578.13;5043780;28;20658;-82
2021/01/28 00:58:00;;;;;;;20.77;12.37;;;;;;;2.56;85.62;97576.41;5047622;28;20813;-81
2021/01/28 01:00:30;;;;;;;20.00;12.63;;;;;;;2.53;86.04;97568.72;5045208;28;20824;-81
2021/01/28 01:02:56;;;;;;;20.30;12.40;;;;;;;2.55;85.60;97570.38;5046483;28;20579;-81
2021/01/28 01:05:24;;;;;;;21.63;14.83;;;;;;;2.51;85.86;97564.44;5044822;28;20244;-80
2021/01/28 01:07:50;;;;;;;25.80;15.30;;;;;;;2.56;85.75;97563.53;5047201;28;20666;-80
2021/01/28 01:10:24;;;;;;;23.50;15.13;;;;;;;2.60;85.43;97567.75;5044908;28;20220;-80
2021/01/28 01:12:50;;;;;;;23.47;14.10;;;;;;;2.66;85.63;97572.78;5048007;28;20210;-80
2021/01/28 01:15:18;;;;;;;23.97;14.00;;;;;;;2.70;85.80;97574.44;5045143;28;20241;-81
2021/01/28 01:17:44;;;;;;;24.30;14.30;;;;;;;2.75;85.46;97572.63;5046520;28;20249;-80
2021/01/28 01:20:11;;;;;;;20.90;12.50;;;;;;;2.82;85.47;97575.97;5045075;28;20220;-80
2021/01/28 01:22:38;;;;;;;20.27;12.43;;;;;;;2.84;85.12;97572.47;5045983;28;21000;-80
2021/01/28 01:25:05;;;;;;;19.30;11.57;;;;;;;2.81;85.38;97567.41;5046269;28;20655;-80
2021/01/28 01:27:31;;;;;;;19.10;11.77;;;;;;;2.77;85.45;97570.88;5040727;28;20230;-81
2021/01/28 01:29:57;;;;;;;20.17;11.83;;;;;;;2.77;85.67;97565.72;5045104;28;20211;-82
2021/01/28 01:32:24;;;;;;;19.67;11.73;;;;;;;2.75;85.39;97562.31;5044641;28;20238;-79
2021/01/28 01:34:51;;;;;;;18.30;11.03;;;;;;;2.74;85.55;97554.63;5046827;28;20246;-80
2021/01/28 01:37:17;;;;;;;18.50;11.63;;;;;;;2.72;85.63;97554.69;5044801;28;20886;-80
2021/01/28 01:39:43;;;;;;;20.17;11.87;;;;;;;2.76;85.32;97558.91;5046454;28;20215;-79
2021/01/28 01:42:10;;;;;;;19.73;12.17;;;;;;;2.76;85.69;97556.31;5043889;28;20237;-80
2021/01/28 01:44:36;;;;;;;20.77;11.87;;;;;;;2.76;85.61;97543.44;5043387;28;20336;-79
2021/01/28 01:47:15;;;;;;;18.17;11.57;;;;;;;2.75;85.50;97549.44;5043971;28;20733;-80
2021/01/28 01:49:43;;;;;;;18.00;12.17;;;;;;;2.77;85.85;97545.13;5046816;28;20224;-80
2021/01/28 01:52:10;;;;;;;18.63;12.47;;;;;;;2.84;85.53;97549.28;5044224;28;20237;-80
2021/01/28 01:54:36;;;;;;;17.97;12.13;;;;;;;2.83;85.67;97537.31;5043563;28;20234;-80
2021/01/28 01:57:05;;;;;;;21.73;12.30;;;;;;;2.86;85.51;97539.81;5042010;28;20296;-80
2021/01/28 01:59:36;;;;;;;19.83;11.53;;;;;;;2.83;85.72;97539.88;5047347;28;20366;-82
2021/01/28 02:02:06;;;;;;;17.17;11.53;;;;;;;2.83;85.39;97529.59;5044219;28;20234;-80
2021/01/28 02:04:33;;;;;;;17.13;10.03;;;;;;;2.80;85.87;97528.78;5046655;28;20254;-81
2021/01/28 02:07:04;;;;;;;16.03;10.00;;;;;;;2.72;85.96;97530.63;5045235;28;20272;-81
2021/01/28 02:09:31;;;;;;;17.77;10.70;;;;;;;2.72;86.24;97531.50;5046465;28;20576;-80
2021/01/28 02:11:57;;;;;;;16.70;10.73;;;;;;;2.70;86.11;97530.66;5043613;28;20784;-80
2021/01/28 02:14:23;;;;;;;15.43;9.73;;;;;;;2.69;86.37;97522.09;5044103;28;20252;-80
2021/01/28 02:16:51;;;;;;;17.53;10.93;;;;;;;2.66;86.39;97521.28;5044135;28;20714;-81
2021/01/28 02:19:28;;;;;;;16.17;10.37;;;;;;;2.62;86.24;97519.63;5044387;28;20740;-80
2021/01/28 02:21:54;;;;;;;16.53;10.13;;;;;;;2.63;86.73;97521.34;5044554;28;20235;-79
2021/01/28 02:24:29;;;;;;;16.23;10.57;;;;;;;2.63;86.69;97522.19;5038620;28;20247;-81
2021/01/28 02:26:57;;;;;;;18.00;10.60;;;;;;;2.66;86.70;97521.28;5045054;28;20234;-82
2021/01/28 02:29:24;;;;;;;15.23;10.83;;;;;;;2.70;86.62;97515.19;5043962;28;20214;-81
2021/01/28 02:31:53;;;;;;;17.67;11.37;;;;;;;2.73;86.13;97514.31;5045032;28;20241;-80
2021/01/28 02:34:20;;;;;;;17.90;11.37;;;;;;;2.73;86.68;97517.72;5045801;28;20236;-81
2021/01/28 02:36:49;;;;;;;17.87;10.50;;;;;;;2.73;86.48;97512.56;5044663;28;20899;-80
2021/01/28 02:39:18;;;;;;;16.43;10.37;;;;;;;2.72;86.53;97499.72;5046876;28;20217;-80
2021/01/28 02:41:47;;;;;;;19.43;11.60;;;;;;;2.71;86.50;97504.03;5044506;28;20241;-80
2021/01/28 02:44:14;;;;;;;17.83;11.17;;;;;;;2.68;86.76;97501.50;5044351;28;20284;-81
2021/01/28 02:46:40;;;;;;;16.63;10.87;;;;;;;2.62;86.97;97496.47;5042875;28;20248;-80
2021/01/28 02:49:06;;;;;;;15.90;10.43;;;;;;;2.60;87.15;97495.66;5046187;28;20222;-80
2021/01/28 02:51:32;;;;;;;17.70;10.83;;;;;;;2.61;87.49;97492.19;5041287;28;20951;-80
2021/01/28 02:53:59;;;;;;;19.63;11.20;;;;;;;2.62;87.03;97489.59;5044923;28;20242;-79
2021/01/28 02:56:27;;;;;;;19.73;11.47;;;;;;;2.65;87.27;97483.56;5041675;28;20264;-80
2021/01/28 02:58:53;;;;;;;20.43;12.10;;;;;;;2.69;87.03;97475.72;5045686;28;20217;-80
2021/01/28 03:01:21;;;;;;;20.87;11.60;;;;;;;2.75;87.03;97477.34;5043769;28;20237;-79
2021/01/28 03:03:48;;;;;;;19.37;12.07;;;;;;;2.83;86.62;97478.06;5043696;28;20221;-80
2021/01/28 03:06:14;;;;;;;18.70;10.97;;;;;;;2.88;86.50;97465.94;5044255;28;20245;-82
2021/01/28 03:08:41;;;;;;;20.57;11.33;;;;;;;2.87;86.56;97466.81;5044909;28;20218;-80
2021/01/28 03:11:08;;;;;;;21.40;12.80;;;;;;;2.87;86.29;97453.94;5042462;28;20244;-80
2021/01/28 03:13:34;;;;;;;21.73;11.80;;;;;;;2.82;86.42;97452.34;5041925;28;20220;-80
2021/01/28 03:16:00;;;;;;;23.00;12.70;;;;;;;2.80;86.60;97454.09;5042626;28;20237;-81
2021/01/28 03:18:27;;;;;;;20.63;11.80;;;;;;;2.78;86.71;97448.97;5043634;28;20245;-81
2021/01/28 03:20:54;;;;;;;20.70;12.10;;;;;;;2.79;86.49;97447.22;5041444;28;20252;-81
2021/01/28 03:23:20;;;;;;;21.73;11.87;;;;;;;2.77;86.67;97442.09;5037884;28;20244;-80
2021/01/28 03:25:47;;;;;;;21.50;12.17;;;;;;;2.76;86.81;97435.28;5043230;28;20256;-81
2021/01/28 03:28:13;;;;;;;20.77;11.63;;;;;;;2.77;87.10;97423.22;5045386;28;20621;-80
2021/01/28 03:30:41;;;;;;;19.97;12.30;;;;;;;2.77;86.77;97429.22;5042600;28;21278;-81
2021/01/28 03:33:09;;;;;;;21.83;12.23;;;;;;;2.72;87.34;97428.50;5046104;28;20755;-80
2021/01/28 03:35:36;;;;;;;21.83;12.33;;;;;;;2.74;87.00;97429.31;5038556;28;20245;-81
2021/01/28 03:38:04;;;;;;;21.70;12.57;;;;;;;2.75;87.24;97430.16;5043730;28;20237;-80
2021/01/28 03:40:31;;;;;;;23.63;13.20;;;;;;;2.72;87.36;97431.06;5036783;28;20237;-80
2021/01/28 03:42:58;;;;;;;21.90;11.83;;;;;;;2.71;87.53;97426.78;5048253;28;20698;-81
2021/01/28 03:45:26;;;;;;;22.00;12.13;;;;;;;2.74;87.25;97425.84;5046141;28;20237;-80
2021/01/28 03:47:53;;;;;;;22.80;12.60;;;;;;;2.74;87.38;97426.72;5048832;28;20217;-81
2021/01/28 03:50:24;;;;;;;21.27;11.63;;;;;;;2.76;87.31;97419.81;5047290;28;20217;-81
2021/01/28 03:52:51;;;;;;;23.90;12.77;;;;;;;2.77;87.51;97420.66;5049448;28;20213;-80
2021/01/28 03:55:17;;;;;;;20.73;11.97;;;;;;;2.73;87.83;97414.72;5045932;28;20241;-80
2021/01/28 03:57:46;;;;;;;22.87;11.90;;;;;;;2.75;87.74;97417.28;5048280;28;20234;-80
2021/01/28 04:00:15;;;;;;;23.00;11.97;;;;;;;2.72;87.87;97407.88;5045341;28;20218;-79
2021/01/28 04:02:41;;;;;;;21.77;11.60;;;;;;;2.72;88.09;97396.72;5048539;28;20217;-80
2021/01/28 04:05:09;;;;;;;18.73;11.10;;;;;;;2.69;87.90;97398.47;5047342;28;20964;-80
2021/01/28 04:07:35;;;;;;;21.30;12.77;;;;;;;2.70;87.85;97389.88;5043154;28;20229;-80
2021/01/28 04:10:04;;;;;;;21.93;11.27;;;;;;;2.72;87.53;97387.28;5046984;28;20664;-82
2021/01/28 04:12:30;;;;;;;20.33;11.43;;;;;;;2.70;88.19;97377.00;5044408;28;20854;-80
2021/01/28 04:14:56;;;;;;;22.87;12.47;;;;;;;2.74;87.69;97384.66;5047022;28;20248;-80
2021/01/28 04:17:22;;;;;;;22.97;12.30;;;;;;;2.72;88.14;97376.97;5042669;28;20241;-80
2021/01/28 04:19:49;;;;;;;24.10;12.83;;;;;;;2.73;87.91;97376.09;5047268;28;20210;-82
2021/01/28 04:22:15;;;;;;;25.33;11.90;;;;;;;2.70;88.23;97369.28;5027916;28;20249;-80
2021/01/28 04:24:41;;;;;;;22.57;11.63;;;;;;;2.69;88.41;97375.31;5046385;28;20233;-80
2021/01/28 04:27:09;;;;;;;23.37;12.33;;;;;;;2.67;88.67;97374.50;5046223;28;20244;-81
2021/01/28 04:29:35;;;;;;;23.47;11.40;;;;;;;2.67;88.80;97373.66;5042508;28;20244;-80
2021/01/28 04:32:01;;;;;;;19.30;10.80;;;;;;;2.69;88.91;97371.88;5045819;28;20244;-81
2021/01/28 04:34:27;;;;;;;21.17;11.40;;;;;;;2.70;88.73;97363.25;5046456;28;20245;-80
2021/01/28 04:36:54;;;;;;;24.27;12.43;;;;;;;2.73;88.76;97357.22;5044494;28;20244;-81
2021/01/28 04:39:20;;;;;;;24.10;12.40;;;;;;;2.78;88.51;97348.53;5047009;28;20213;-80
2021/01/28 04:41:47;;;;;;;23.17;11.23;;;;;;;2.83;88.64;97341.56;5046283;28;20249;-80
2021/01/28 04:44:14;;;;;;;22.97;12.83;;;;;;;2.86;88.08;97336.31;5045102;28;20234;-81
2021/01/28 04:46:42;;;;;;;23.10;12.43;;;;;;;2.86;88.23;97331.16;5045859;28;20783;-80
2021/01/28 04:49:10;;;;;;;22.30;12.43;;;;;;;2.93;88.30;97338.78;5048541;28;20224;-80
2021/01/28 04:51:37;;;;;;;21.63;12.00;;;;;;;2.97;88.38;97335.25;5044855;28;20234;-79
2021/01/28 04:54:05;;;;;;;24.07;12.73;;;;;;;2.99;87.76;97321.47;5044942;28;20974;-82
2021/01/28 04:56:33;;;;;;;21.73;11.73;;;;;;;3.05;88.00;97333.34;5047986;28;20237;-80
2021/01/28 04:59:06;;;;;;;22.20;11.50;;;;;;;3.08;87.83;97338.44;5048265;28;20225;-80
2021/01/28 05:01:33;;;;;;;24.10;12.43;;;;;;;3.13;87.51;97331.47;5047191;28;20851;-80
2021/01/28 05:04:04;;;;;;;20.67;11.40;;;;;;;3.17;87.77;97338.25;5046712;28;20244;-80
2021/01/28 05:06:30;;;;;;;25.77;12.20;;;;;;;3.21;87.81;97321.84;5047707;28;20242;-80
2021/01/28 05:08:56;;;;;;;25.83;12.90;;;;;;;3.22;87.07;97307.25;5046119;28;20218;-81
2021/01/28 05:11:25;;;;;;;20.67;11.40;;;;;;;3.22;87.49;97305.50;5044377;28;20246;-80
2021/01/28 05:13:52;;;;;;;23.03;12.20;;;;;;;3.28;87.35;97300.19;5047956;28;20266;-80
2021/01/28 05:16:21;;;;;;;22.67;12.27;;;;;;;3.33;87.10;97287.22;5039046;28;20276;-81
2021/01/28 05:18:58;;;;;;;23.20;12.23;;;;;;;3.39;86.62;97281.06;5047399;28;20214;-81
2021/01/28 05:21:46;;;;;;;19.50;10.57;;;;;;;3.43;86.16;97285.25;5044278;28;20237;-81
2021/01/28 05:24:22;;;;;;;19.43;10.77;;;;;;;3.45;86.17;97270.59;5047054;28;20240;-81
2021/01/28 05:26:49;;;;;;;19.27;10.87;;;;;;;3.48;86.42;97265.38;5045252;28;20230;-80
2021/01/28 05:29:23;;;;;;;23.47;11.33;;;;;;;3.50;86.37;97267.91;5046267;28;20247;-80
2021/01/28 05:31:50;;;;;;;21.53;10.93;;;;;;;3.50;86.23;97261.03;5044342;28;20238;-80
2021/01/28 05:34:23;;;;;;;20.00;11.50;;;;;;;3.52;85.67;97266.16;5046718;28;20241;-81
2021/01/28 05:36:55;;;;;;;22.97;10.63;;;;;;;3.45;85.89;97270.59;5045850;28;20715;-82
2021/01/28 05:39:25;;;;;;;19.23;10.17;;;;;;;3.42;86.24;97255.22;5047502;28;20642;-80
2021/01/28 05:41:52;;;;;;;18.50;9.47;;;;;;;3.40;86.31;97247.53;5045757;28;20241;-80
2021/01/28 05:44:23;;;;;;;19.93;10.70;;;;;;;3.39;85.99;97250.13;5045027;28;21058;-81
2021/01/28 05:47:00;;;;;;;19.10;10.93;;;;;;;3.37;85.56;97257.06;5043591;28;20238;-80
2021/01/28 05:49:27;;;;;;;18.97;9.97;;;;;;;3.39;86.17;97252.72;5047161;28;20279;-82
2021/01/28 05:51:54;;;;;;;17.37;10.03;;;;;;;3.37;86.02;97239.00;5042153;28;20237;-81
2021/01/28 05:54:22;;;;;;;19.33;10.27;;;;;;;3.33;86.35;97237.38;5042880;28;20369;-81
2021/01/28 05:56:55;;;;;;;18.20;9.93;;;;;;;3.34;85.51;97241.66;5044352;28;20238;-81
2021/01/28 05:59:23;;;;;;;20.63;11.50;;;;;;;3.39;86.13;97245.81;5040171;28;20229;-81
2021/01/28 06:02:08;;;;;;;20.87;11.17;;;;;;;3.44;85.69;97231.09;5037809;28;20238;-81
2021/01/28 06:04:48;;;;;;;21.23;11.83;;;;;;;3.43;85.08;97221.63;5045027;28;20722;-80
2021/01/28 06:07:25;;;;;;;21.33;11.13;;;;;;;3.39;85.36;97222.59;5048584;28;20236;-80
2021/01/28 06:10:08;;;;;;;18.90;10.70;;;;;;;3.42;85.51;97209.66;5049268;28;20375;-80
2021/01/28 06:12:46;;;;;;;19.73;10.20;;;;;;;3.44;85.79;97213.03;5050712;28;20246;-80
2021/01/28 06:15:19;;;;;;;18.13;10.23;;;;;;;3.47;85.53;97223.28;5047549;28;20264;-80
2021/01/28 06:18:19;;;;;;;17.90;10.20;;;;;;;3.49;85.24;97223.22;5049995;28;20730;-81
2021/01/28 06:21:20;;;;;;;21.03;11.20;;;;;;;3.50;85.37;97211.19;5046048;28;20245;-80
2021/01/28 06:24:03;;;;;;;20.33;10.93;;;;;;;3.47;85.19;97217.25;5049447;28;20638;-81
2021/01/28 06:26:33;;;;;;;16.47;9.93;;;;;;;3.50;85.42;97216.34;5048334;28;20257;-80
2021/01/28 06:29:34;;;;;;;20.17;11.17;;;;;;;3.50;84.79;97218.94;5048964;28;20213;-80
2021/01/28 06:32:13;;;;;;;18.13;10.20;;;;;;;3.53;85.16;97222.28;5045675;28;20249;-80
2021/01/28 06:35:00;;;;;;;21.30;11.13;;;;;;;3.51;85.37;97224.06;5045785;28;20295;-81
2021/01/28 06:37:41;;;;;;;18.93;9.97;;;;;;;3.51;85.25;97224.06;5043827;28;20347;-81
2021/01/28 06:40:13;;;;;;;20.43;10.23;;;;;;;3.58;85.02;97222.16;5039812;28;20221;-82
2021/01/28 06:42:46;;;;;;;20.87;10.57;;;;;;;3.62;84.90;97210.88;5043252;28;20226;-80
2021/01/28 06:45:15;;;;;;;17.90;10.47;;;;;;;3.65;85.02;97216.78;5043702;28;20241;-80
2021/01/28 06:47:48;;;;;;;19.03;10.63;;;;;;;3.65;84.60;97216.78;5044030;28;20224;-80
2021/01/28 06:50:18;;;;;;;17.20;11.03;;;;;;;3.64;84.78;97202.22;5043155;28;20214;-82
2021/01/28 06:53:19;;;;;;;20.50;10.27;;;;;;;3.62;84.37;97201.41;5045536;28;20229;-80
2021/01/28 06:55:49;;;;;;;20.33;10.73;;;;;;;3.64;84.80;97198.81;5000345;28;20255;-80
2021/01/28 06:58:40;;;;;;;21.73;10.77;;;;;;;3.66;84.95;97194.44;5002472;28;20866;-81
2021/01/28 07:01:12;;;;;;;18.53;11.27;;;;;;;3.66;84.77;97179.81;5028842;28;20268;-80
2021/01/28 07:03:47;;;;;;;26.43;11.77;;;;;;;3.66;84.68;97190.13;5045034;28;20230;-81
2021/01/28 07:06:17;;;;;;;21.10;11.80;;;;;;;3.67;84.47;97173.75;5044176;28;20327;-80
2021/01/28 07:08:51;;;;;;;21.90;10.73;;;;;;;3.70;84.65;97166.84;5043441;28;20218;-80
2021/01/28 07:11:26;;;;;;;19.00;11.07;;;;;;;3.73;84.67;97156.44;5044578;28;20236;-79
2021/01/28 07:14:16;;;;;;;21.43;11.77;;;;;;;3.75;84.16;97141.75;5045311;28;20217;-81
2021/01/28 07:16:50;;;;;;;20.83;11.00;;;;;;;3.77;84.36;97143.41;5042497;28;20234;-80
2021/01/28 07:19:19;;;;;;;17.33;10.30;;;;;;;3.79;84.76;97138.22;5045654;28;20225;-80
2021/01/28 07:21:48;;;;;;;22.13;10.97;;;;;;;3.78;84.37;97145.09;5043588;28;20245;-80
2021/01/28 07:24:27;;;;;;;20.77;11.60;;;;;;;3.76;84.42;97133.97;5045831;28;20238;-80
2021/01/28 07:26:55;;;;;;;18.20;10.93;;;;;;;3.78;84.70;97123.63;5043445;28;20228;-80
2021/01/28 07:30:00;;;;;;;19.13;10.67;;;;;;;3.78;83.60;97128.78;5044442;28;20776;-80
2021/01/28 07:32:56;;;;;;;19.70;11.00;;;;;;;3.79;84.29;97127.91;5045322;28;20246;-80
2021/01/28 07:35:32;;;;;;;19.87;10.43;;;;;;;3.80;84.06;97124.41;5043562;28;20298;-80
2021/01/28 07:38:46;;;;;;;20.63;11.50;;;;;;;3.78;83.56;97123.63;5046320;28;20233;-81
2021/01/28 07:41:22;;;;;;;21.77;12.10;;;;;;;3.80;84.32;97111.53;5043662;28;20241;-80
2021/01/28 07:43:50;;;;;;;19.00;11.73;;;;;;;3.84;84.27;97118.28;5045159;28;20223;-79
2021/01/28 07:46:19;;;;;;;21.77;12.27;;;;;;;3.85;84.21;97109.66;5042106;28;20256;-81
2021/01/28 07:48:46;;;;;;;20.57;11.40;;;;;;;3.84;84.43;97110.53;5045387;28;20225;-80
2021/01/28 07:51:33;;;;;;;21.40;12.50;;;;;;;3.88;84.09;97114.75;5043019;28;20332;-81
2021/01/28 07:54:00;;;;;;;21.30;12.57;;;;;;;3.91;84.58;97099.16;5045823;28;20234;-79
2021/01/28 07:56:48;;;;;;;18.43;11.53;;;;;;;3.96;83.94;97092.13;5044088;28;20230;-80
2021/01/28 07:59:20;;;;;;;19.33;11.90;;;;;;;4.01;84.43;97085.13;5040350;28;20816;-81
2021/01/28 08:01:48;;;;;;;18.40;11.03;;;;;;;4.00;84.26;97088.56;5042662;28;20245;-80
2021/01/28 08:04:24;;;;;;;15.70;10.57;;;;;;;3.97;84.06;97083.53;5043271;28;20266;-80
2021/01/28 08:06:50;;;;;;;18.63;11.53;;;;;;;3.98;84.30;97080.03;5043782;28;20234;-80
2021/01/28 08:09:17;;;;;;;17.70;11.03;;;;;;;3.98;84.41;97072.28;5042483;28;20305;-79
2021/01/28 08:11:48;;;;;;;16.87;10.70;;;;;;;4.02;83.90;97060.16;5042894;28;20321;-80
2021/01/28 08:14:15;;;;;;;16.43;10.77;;;;;;;4.04;83.93;97059.22;5045226;28;20730;-80
2021/01/28 08:16:42;;;;;;;19.93;10.83;;;;;;;4.08;83.83;97061.69;5042613;28;20269;-80
2021/01/28 08:19:13;;;;;;;17.20;10.63;;;;;;;4.08;84.17;97048.78;5044654;28;20218;-80
2021/01/28 08:21:40;;;;;;;16.93;10.87;;;;;;;4.08;84.00;97054.81;5042901;28;20249;-80
2021/01/28 08:24:21;;;;;;;18.23;11.73;;;;;;;4.06;83.25;97051.41;5043615;28;20230;-80
2021/01/28 08:26:49;;;;;;;18.77;11.63;;;;;;;4.09;83.83;97037.59;5039203;28;20253;-80
2021/01/28 08:29:19;;;;;;;18.20;9.87;;;;;;;4.13;83.57;97034.03;5045454;28;20224;-80
2021/01/28 08:31:47;;;;;;;20.73;10.93;;;;;;;4.15;83.77;97037.41;5047402;28;20242;-80
2021/01/28 08:34:17;;;;;;;20.20;12.10;;;;;;;4.20;84.00;97026.03;5048430;28;20264;-81
2021/01/28 08:36:47;;;;;;;19.00;10.83;;;;;;;4.24;83.46;97025.03;5045869;28;20269;-82
2021/01/28 08:39:15;;;;;;;18.60;10.33;;;;;;;4.28;84.00;97030.94;5048952;28;20469;-80
2021/01/28 08:41:42;;;;;;;19.90;10.53;;;;;;;4.31;83.45;97020.53;5045820;28;20248;-80
2021/01/28 08:44:13;;;;;;;18.20;10.73;;;;;;;4.29;83.44;97014.59;5048114;28;20295;-80
2021/01/28 08:46:41;;;;;;;15.50;9.77;;;;;;;4.33;83.27;97013.59;5044768;28;20238;-80
2021/01/28 08:49:10;;;;;;;19.17;10.63;;;;;;;4.37;83.83;97004.84;5048371;28;20206;-80
2021/01/28 08:51:38;;;;;;;16.20;10.00;;;;;;;4.39;83.40;97008.25;5045595;28;20248;-80
2021/01/28 08:54:07;;;;;;;18.03;11.20;;;;;;;4.43;83.41;97003.84;5048346;28;20282;-80
2021/01/28 08:56:35;;;;;;;17.23;11.00;;;;;;;4.46;83.40;97002.88;5045568;28;20784;-81
2021/01/28 08:59:03;;;;;;;18.47;11.27;;;;;;;4.49;82.96;96992.47;5048503;28;20228;-81
2021/01/28 09:01:35;;;;;;;17.57;10.10;;;;;;;4.50;83.26;96989.81;5045067;28;20237;-81
2021/01/28 09:04:04;;;;;;;21.40;11.47;;;;;;;4.54;82.74;96978.50;5047195;28;20754;-80
2021/01/28 09:06:39;;;;;;;18.30;11.27;;;;;;;4.53;83.12;96978.53;5045801;28;20348;-80
2021/01/28 09:09:14;;;;;;;17.50;11.03;;;;;;;4.50;83.02;96978.63;5047382;28;20225;-80
2021/01/28 09:11:40;;;;;;;19.23;11.80;;;;;;;4.47;83.13;96973.56;5044907;28;20246;-80
2021/01/28 09:14:16;;;;;;;17.93;11.13;;;;;;;4.46;82.51;96961.56;5045137;28;20237;-82
2021/01/28 09:16:52;;;;;;;21.37;12.03;;;;;;;4.49;83.12;96951.13;5041110;28;20745;-81
2021/01/28 09:19:20;;;;;;;18.37;11.47;;;;;;;4.50;83.42;96938.16;5046677;28;20339;-80
2021/01/28 09:21:56;;;;;;;18.80;11.83;;;;;;;4.51;83.56;96933.84;5045802;28;20332;-81
2021/01/28 09:24:32;;;;;;;18.63;10.83;;;;;;;4.54;83.43;96938.91;5047615;28;20319;-80
2021/01/28 09:27:17;;;;;;;19.43;11.07;;;;;;;4.55;82.79;96945.75;5046362;28;20663;-80
2021/01/28 09:29:45;;;;;;;19.50;10.97;;;;;;;4.51;82.56;96939.84;5047365;28;20218;-81
2021/01/28 09:32:14;;;;;;;17.67;10.37;;;;;;;4.47;83.14;96932.25;5044406;28;20762;-80
2021/01/28 09:34:41;;;;;;;19.10;12.13;;;;;;;4.46;83.27;96923.66;5046025;28;20242;-81
2021/01/28 09:37:09;;;;;;;16.87;10.60;;;;;;;4.46;83.63;96928.00;5045181;28;20332;-81
2021/01/28 09:39:40;;;;;;;17.00;10.53;;;;;;;4.43;83.19;96922.03;5045212;28;20210;-81
2021/01/28 09:42:25;;;;;;;21.60;11.83;;;;;;;4.46;83.11;96907.34;5045927;28;20889;-80
2021/01/28 09:44:52;;;;;;;16.30;10.43;;;;;;;4.49;83.56;96907.25;5047024;28;20238;-81
2021/01/28 09:47:22;;;;;;;17.50;9.87;;;;;;;4.50;83.80;96896.00;5046179;28;20328;-81
2021/01/28 09:49:50;;;;;;;19.30;10.53;;;;;;;4.53;83.35;96885.56;5047445;28;20233;-81
2021/01/28 09:52:24;;;;;;;15.87;9.80;;;;;;;4.54;83.47;96872.63;5046339;28;20248;-80
2021/01/28 09:54:51;;;;;;;17.13;10.10;;;;;;;4.58;83.76;96873.34;5047386;28;20234;-81
2021/01/28 09:57:18;;;;;;;15.00;9.63;;;;;;;4.58;83.27;96874.19;5043955;28;21065;-81
2021/01/28 09:59:44;;;;;;;18.20;9.70;;;;;;;4.57;83.42;96872.50;5045446;28;20218;-81
2021/01/28 10:02:15;;;;;;;18.30;10.33;;;;;;;4.56;83.59;96854.50;5044517;28;20324;-80
2021/01/28 10:04:43;;;;;;;15.83;8.87;;;;;;;4.59;83.51;96849.19;5046053;28;20279;-81
2021/01/28 10:07:10;;;;;;;14.57;9.07;;;;;;;4.60;83.25;96845.72;5047044;28;20814;-81
2021/01/28 10:09:36;;;;;;;14.90;8.93;;;;;;;4.61;83.60;96832.78;5045897;28;20225;-81
2021/01/28 10:12:03;;;;;;;17.43;9.17;;;;;;;4.59;83.66;96839.69;5044050;28;20242;-81
2021/01/28 10:14:29;;;;;;;14.33;8.97;;;;;;;4.58;83.64;96839.78;5045539;28;20250;-81
2021/01/28 10:16:56;;;;;;;16.93;9.27;;;;;;;4.57;83.79;96830.34;5042530;28;20250;-80
2021/01/28 10:19:22;;;;;;;15.60;8.90;;;;;;;4.54;83.69;96825.28;5045046;28;20221;-80
2021/01/28 10:21:49;;;;;;;15.33;8.57;;;;;;;4.54;83.96;96820.09;5043277;28;20238;-81
2021/01/28 10:24:15;;;;;;;14.17;8.43;;;;;;;4.54;83.50;96815.81;5044108;28;20326;-80
2021/01/28 10:26:42;;;;;;;16.07;9.03;;;;;;;4.53;84.03;96810.69;5041219;28;20294;-82
2021/01/28 10:29:08;;;;;;;16.07;8.53;;;;;;;4.51;83.51;96815.06;5046616;28;20249;-80
2021/01/28 10:31:34;;;;;;;15.63;8.87;;;;;;;4.48;83.79;96794.53;5042593;28;20287;-81
2021/01/28 10:34:00;;;;;;;14.20;8.83;;;;;;;4.53;84.09;96800.38;5043568;28;20237;-80
2021/01/28 10:36:27;;;;;;;13.90;8.40;;;;;;;4.53;83.79;96784.88;5041917;28;20245;-80
2021/01/28 10:38:55;;;;;;;11.97;7.87;;;;;;;4.56;83.78;96783.03;5043762;28;20487;-80
2021/01/28 10:41:22;;;;;;;15.70;8.30;;;;;;;4.59;84.00;96793.22;5044197;28;20252;-81
2021/01/28 10:43:48;;;;;;;17.33;8.43;;;;;;;4.62;83.49;96781.97;5042494;28;20244;-82
2021/01/28 10:46:14;;;;;;;16.33;8.53;;;;;;;4.62;84.12;96774.22;5041977;28;20234;-80
2021/01/28 10:48:40;;;;;;;14.13;7.53;;;;;;;4.63;84.08;96762.97;5044896;28;20264;-80
2021/01/28 10:51:08;;;;;;;13.13;7.57;;;;;;;4.58;84.38;96754.56;5041702;28;20248;-80
2021/01/28 10:53:36;;;;;;;10.23;6.30;;;;;;;4.54;84.09;96752.97;5044977;28;20687;-81
2021/01/28 10:56:03;;;;;;;13.37;6.83;;;;;;;4.41;84.51;96750.84;5044534;28;20257;-80
2021/01/28 10:58:30;;;;;;;12.17;7.03;;;;;;;4.36;84.82;96744.19;5046389;28;20715;-80
2021/01/28 11:00:56;;;;;;;8.90;6.00;;;;;;;4.33;84.81;96736.53;5042866;28;20237;-80
2021/01/28 11:03:22;;;;;;;10.63;6.33;;;;;;;4.37;84.86;96728.59;5044244;28;20217;-81
2021/01/28 11:05:50;;;;;;;12.33;7.83;;;;;;;4.43;85.02;96723.25;5041739;28;20246;-80
2021/01/28 11:08:16;;;;;;;10.73;6.07;;;;;;;4.47;84.85;96710.19;5044904;28;20600;-81
2021/01/28 11:10:43;;;;;;;8.73;5.70;;;;;;;4.49;84.93;96703.28;5039453;28;20237;-81
2021/01/28 11:13:10;;;;;;;11.90;6.00;;;;;;;4.54;84.66;96691.00;5043923;28;20214;-80
2021/01/28 11:15:37;;;;;;;10.37;5.40;;;;;;;4.55;84.86;96684.94;5042607;28;20250;-82
2021/01/28 11:18:04;;;;;;;9.90;5.70;;;;;;;4.56;84.91;96686.66;5043858;28;20237;-80
2021/01/28 11:20:31;;;;;;;10.30;5.77;;;;;;;4.59;84.94;96673.59;5038882;28;20241;-82
2021/01/28 11:22:57;;;;;;;9.97;5.77;;;;;;;4.59;84.72;96660.69;5045864;28;20737;-80
2021/01/28 11:25:25;;;;;;;9.37;5.37;;;;;;;4.61;84.62;96671.78;5044149;28;20271;-80
2021/01/28 11:27:51;;;;;;;10.87;6.03;;;;;;;4.62;84.86;96655.41;5045769;28;21008;-81
2021/01/28 11:30:21;;;;;;;9.53;5.13;;;;;;;4.61;84.92;96656.28;5044349;28;20205;-80
2021/01/28 11:32:48;;;;;;;8.30;5.07;;;;;;;4.59;85.35;96655.53;5046390;28;20230;-80
2021/01/28 11:35:14;;;;;;;8.23;4.97;;;;;;;4.56;85.06;96643.59;5043472;28;20264;-82
2021/01/28 11:37:45;;;;;;;8.47;4.90;;;;;;;4.55;84.99;96647.03;5044729;28;20273;-82
2021/01/28 11:40:12;;;;;;;7.90;4.70;;;;;;;4.55;85.33;96631.56;5044513;28;20257;-81